Time;durP1;ratioP1;P1;durP2;ratioP2;P2;SDS_P1;SDS_P2;PMS_P1;PMS_P2;Temp;Humidity;BMP_temperature;BMP_pressure;BME280_temperature;BME280_humidity;BME280_pressure;Samples;Min_cycle;Max_cycle;Signal;HPM_P1;HPM_P2
2023/08/29 00:01:10;;;;;;;2.97;2.65;;;;;;;;;;5015796;28;20041;-76
2023/08/29 00:03:36;;;;;;;6.47;3.22;;;;;;;;;;4999246;28;20382;-77
2023/08/29 00:06:05;;;;;;;3.08;2.47;;;;;;;;;;5015016;28;20505;-77
2023/08/29 00:08:34;;;;;;;5.28;2.38;;;17.00;99.90;;;;;;4999238;28;20045;-77
2023/08/29 00:11:02;;;;;;;7.05;2.90;;;16.60;99.90;;;;;;4998989;28;20087;-77
2023/08/29 00:13:29;;;;;;;3.05;2.75;;;;;;;;;;4999017;28;20460;-77
2023/08/29 00:15:55;;;;;;;9.13;2.90;;;;;;;;;;4998060;28;20084;-77
2023/08/29 00:18:22;;;;;;;3.97;3.00;;;;;;;;;;4998884;28;20037;-77
2023/08/29 00:20:51;;;;;;;4.13;3.10;;;16.60;99.90;;;;;;4999344;28;20037;-77
2023/08/29 00:23:20;;;;;;;4.07;3.00;;;16.70;99.90;;;;;;4998608;28;20045;-77
2023/08/29 00:25:47;;;;;;;5.63;2.75;;;;;;;;;;4998723;28;20559;-77
2023/08/29 00:28:13;;;;;;;4.90;2.97;;;;;;;;;;4999394;28;20048;-77
2023/08/29 00:30:40;;;;;;;4.32;2.55;;;16.60;99.90;;;;;;5015716;28;20041;-77
2023/08/29 00:33:08;;;;;;;3.08;2.40;;;;;;;;;;5014880;28;20048;-77
2023/08/29 00:35:37;;;;;;;3.58;2.80;;;16.70;99.90;;;;;;4999056;28;20450;-77
2023/08/29 00:38:03;;;;;;;2.90;2.38;;;;;;;;;;4998474;28;20052;-77
2023/08/29 00:40:32;;;;;;;4.05;3.05;;;;;;;;;;4999249;28;20049;-76
2023/08/29 00:42:59;;;;;;;5.50;3.03;;;;;;;;;;4998643;28;20048;-77
2023/08/29 00:45:30;;;;;;;3.70;2.90;;;16.70;99.90;;;;;;5015471;28;20038;-77
2023/08/29 00:47:57;;;;;;;3.55;2.63;;;;;;;;;;5014869;28;20064;-77
2023/08/29 00:50:23;;;;;;;4.85;2.63;;;16.40;99.90;;;;;;4999134;28;20501;-76
2023/08/29 00:52:54;;;;;;;3.55;3.22;;;16.30;99.90;;;;;;4999202;28;20053;-77
2023/08/29 00:55:25;;;;;;;5.07;2.80;;;;;;;;;;4999142;28;20045;-76
2023/08/29 00:57:55;;;;;;;5.80;3.10;;;;;;;;;;4999117;28;20282;-76
2023/08/29 01:00:26;;;;;;;3.25;2.90;;;16.50;99.90;;;;;;4999372;28;20041;-77
2023/08/29 01:02:55;;;;;;;4.20;3.00;;;;;;;;;;4999049;28;20037;-77
2023/08/29 01:05:21;;;;;;;3.22;2.92;;;16.50;99.90;;;;;;5014846;28;20128;-79
2023/08/29 01:07:53;;;;;;;4.97;3.17;;;16.50;99.90;;;;;;4998668;28;20033;-77
2023/08/29 01:10:33;;;;;;;3.97;3.35;;;16.50;99.90;;;;;;4998562;28;20049;-79
2023/08/29 01:13:11;;;;;;;3.67;2.90;;;16.50;99.90;;;;;;4998853;28;20045;-76
2023/08/29 01:15:37;;;;;;;3.10;2.67;;;;;;;;;;5015192;28;20474;-76
2023/08/29 01:18:07;;;;;;;5.03;2.88;;;16.50;99.90;;;;;;4998625;28;20136;-76
2023/08/29 01:20:34;;;;;;;4.90;3.30;;;;;;;;;;5014413;28;20462;-76
2023/08/29 01:23:24;;;;;;;3.20;2.90;;;16.50;99.90;;;;;;4998577;28;20034;-78
2023/08/29 01:26:14;;;;;;;5.25;3.50;;;16.30;99.90;;;;;;5015315;28;20037;-76
2023/08/29 01:28:49;;;;;;;4.18;2.97;;;16.40;99.90;;;;;;4993376;28;20508;-76
2023/08/29 01:31:15;;;;;;;4.65;3.22;;;;;;;;;;5002542;28;20065;-76
2023/08/29 01:33:42;;;;;;;4.03;3.00;;;16.10;99.90;;;;;;5001850;28;20041;-76
2023/08/29 01:36:09;;;;;;;4.80;2.92;;;;;;;;;;5001633;28;20118;-78
2023/08/29 01:38:35;;;;;;;3.33;2.58;;;;;;;;;;5002436;28;20113;-77
2023/08/29 01:41:02;;;;;;;4.55;2.72;;;;;;;;;;5018779;28;20030;-76
2023/08/29 01:43:28;;;;;;;5.65;3.00;;;;;;;;;;5001604;28;20116;-76
2023/08/29 01:45:56;;;;;;;3.42;2.97;;;16.10;99.90;;;;;;5017775;28;20052;-76
2023/08/29 01:48:23;;;;;;;5.47;3.08;;;;;;;;;;5001393;28;20045;-76
2023/08/29 01:50:49;;;;;;;5.18;3.08;;;;;;;;;;5037147;28;20116;-76
2023/08/29 01:53:15;;;;;;;4.35;3.10;;;;;;;;;;5002784;28;20456;-77
2023/08/29 01:55:47;;;;;;;5.68;3.10;;;16.30;99.90;;;;;;5003251;28;20037;-76
2023/08/29 01:58:14;;;;;;;5.57;2.83;;;16.10;99.90;;;;;;5019687;28;20489;-76
2023/08/29 02:00:42;;;;;;;3.05;2.55;;;16.10;99.90;;;;;;5019233;28;20046;-76
2023/08/29 02:03:10;;;;;;;3.35;2.80;;;;;;;;;;5003590;28;20034;-77
2023/08/29 02:05:37;;;;;;;3.35;2.88;;;;;;;;;;5019148;28;20037;-77
2023/08/29 02:08:03;;;;;;;4.30;3.00;;;;;;;;;;5001911;28;20102;-76
2023/08/29 02:10:30;;;;;;;3.78;2.85;;;;;;;;;;5017696;28;20037;-76
2023/08/29 02:12:56;;;;;;;5.38;3.05;;;;;;;;;;5002694;28;20034;-77
2023/08/29 02:15:22;;;;;;;3.40;3.05;;;;;;;;;;5019945;28;20055;-77
2023/08/29 02:17:48;;;;;;;4.85;3.15;;;;;;;;;;5019952;28;20049;-77
2023/08/29 02:20:15;;;;;;;3.00;2.50;;;;;;;;;;5008613;28;20541;-76
2023/08/29 02:22:41;;;;;;;3.63;2.90;;;;;;;;;;5007792;28;20084;-76
2023/08/29 02:25:07;;;;;;;2.92;2.45;;;;;;;;;;5005048;28;20048;-76
2023/08/29 02:27:39;;;;;;;2.88;2.58;;;;;;;;;;5034704;28;20087;-76
2023/08/29 02:30:08;;;;;;;4.43;3.08;;;;;;;;;;5000838;28;20045;-76
2023/08/29 02:32:34;;;;;;;4.05;3.00;;;;;;;;;;5017441;28;20477;-76
2023/08/29 02:35:03;;;;;;;4.28;2.88;;;16.00;99.90;;;;;;5001229;28;20067;-76
2023/08/29 02:37:29;;;;;;;5.07;2.53;;;;;;;;;;5017217;28;20085;-76
2023/08/29 02:39:55;;;;;;;3.92;3.08;;;;;;;;;;5000489;28;20052;-76
2023/08/29 02:42:22;;;;;;;4.10;3.15;;;;;;;;;;5000594;28;20099;-76
2023/08/29 02:44:48;;;;;;;4.45;3.10;;;;;;;;;;5016838;28;20497;-76
2023/08/29 02:47:14;;;;;;;4.65;2.90;;;;;;;;;;5017230;28;20085;-78
2023/08/29 02:49:43;;;;;;;3.33;2.97;;;15.90;99.90;;;;;;5000569;28;20038;-76
2023/08/29 02:52:09;;;;;;;3.30;2.60;;;;;;;;;;5000301;28;20091;-76
2023/08/29 02:54:35;;;;;;;8.40;2.97;;;;;;;;;;5000380;28;20488;-76
2023/08/29 02:57:01;;;;;;;4.80;3.13;;;;;;;;;;5034838;28;20513;-76
2023/08/29 02:59:28;;;;;;;3.88;2.80;;;;;;;;;;5016598;28;20045;-76
2023/08/29 03:01:54;;;;;;;3.83;2.95;;;;;;;;;;5017082;28;20446;-76
2023/08/29 03:04:20;;;;;;;3.63;2.80;;;;;;;;;;5000094;28;20424;-76
2023/08/29 03:06:47;;;;;;;5.07;2.97;;;;;;;;;;5000727;28;20547;-76
2023/08/29 03:09:13;;;;;;;4.60;3.03;;;;;;;;;;5000550;28;20041;-78
2023/08/29 03:11:39;;;;;;;3.40;2.70;;;;;;;;;;5000322;28;20044;-76
2023/08/29 03:14:07;;;;;;;5.65;2.70;;;15.50;99.90;;;;;;5016618;28;20045;-76
2023/08/29 03:16:37;;;;;;;5.55;3.40;;;;;;;;;;5000062;28;20042;-77
2023/08/29 03:19:03;;;;;;;3.42;2.92;;;;;;;;;;5016251;28;20421;-76
2023/08/29 03:21:29;;;;;;;4.88;2.80;;;;;;;;;;4999715;28;20413;-76
2023/08/29 03:23:55;;;;;;;3.00;2.63;;;;;;;;;;4999468;28;20168;-76
2023/08/29 03:26:21;;;;;;;3.22;2.63;;;;;;;;;;5016481;28;20068;-76
2023/08/29 03:28:48;;;;;;;4.18;2.85;;;;;;;;;;4999992;28;20048;-76
2023/08/29 03:31:15;;;;;;;6.80;3.55;;;15.60;99.90;;;;;;5015916;28;20545;-76
2023/08/29 03:33:42;;;;;;;5.35;2.75;;;;;;;;;;4999547;28;20501;-76
2023/08/29 03:36:08;;;;;;;3.13;2.83;;;;;;;;;;4999402;28;20049;-76
2023/08/29 03:38:39;;;;;;;4.95;2.50;;;15.70;99.90;;;;;;5015871;28;20054;-76
2023/08/29 03:41:05;;;;;;;4.40;2.80;;;15.30;99.90;;;;;;5000177;28;20057;-76
2023/08/29 03:43:34;;;;;;;2.55;2.35;;;15.20;99.90;;;;;;4999336;28;20049;-76
2023/08/29 03:46:03;;;;;;;5.97;3.53;;;15.40;99.90;;;;;;4999301;28;20046;-76
2023/08/29 03:48:30;;;;;;;4.55;2.88;;;;;;;;;;4999141;28;20037;-76
2023/08/29 03:50:58;;;;;;;3.00;2.50;;;;;;;;;;5015143;28;20041;-76
2023/08/29 03:53:26;;;;;;;3.17;2.67;;;15.30;99.90;;;;;;4999637;28;20095;-76
2023/08/29 03:55:52;;;;;;;3.67;2.70;;;;;;;;;;4999017;28;20041;-77
2023/08/29 03:58:23;;;;;;;3.00;2.58;;;15.30;99.90;;;;;;5015733;28;20046;-76
2023/08/29 04:00:49;;;;;;;4.30;2.50;;;;;;;;;;5015512;28;20077;-76
2023/08/29 04:03:15;;;;;;;2.88;2.42;;;;;;;;;;5015978;28;20088;-77
2023/08/29 04:05:42;;;;;;;3.97;2.67;;;;;;;;;;4999029;28;20053;-76
2023/08/29 04:08:10;;;;;;;3.85;2.80;;;;;;;;;;5015279;28;20038;-76
2023/08/29 04:10:37;;;;;;;3.00;2.70;;;;;;;;;;4998704;28;20120;-76
2023/08/29 04:13:07;;;;;;;3.22;2.70;;;;;;;;;;5015405;28;20053;-75
2023/08/29 04:15:33;;;;;;;3.28;2.40;;;;;;;;;;4998602;28;20041;-76
2023/08/29 04:18:00;;;;;;;3.40;2.50;;;;;;;;;;4998828;28;20046;-76
2023/08/29 04:20:31;;;;;;;3.45;2.67;;;15.10;99.90;;;;;;5032359;28;20084;-76
2023/08/29 04:22:58;;;;;;;4.53;2.67;;;;;;;;;;5013985;28;20489;-76
2023/08/29 04:25:27;;;;;;;3.30;2.75;;;;;;;;;;5014044;28;20056;-77
2023/08/29 04:27:53;;;;;;;2.85;2.53;;;;;;;;;;5014303;28;20081;-76
2023/08/29 04:30:20;;;;;;;2.95;2.50;;;15.00;99.90;;;;;;4998572;28;20516;-78
2023/08/29 04:32:51;;;;;;;5.25;2.67;;;15.00;99.90;;;;;;5014846;28;20041;-77
2023/08/29 04:35:17;;;;;;;3.13;2.83;;;15.10;99.90;;;;;;4998422;28;20420;-76
2023/08/29 04:37:50;;;;;;;4.20;2.88;;;15.20;99.90;;;;;;4998895;28;20045;-76
2023/08/29 04:40:17;;;;;;;3.60;2.55;;;15.00;99.90;;;;;;4998152;28;20041;-77
2023/08/29 04:42:44;;;;;;;3.13;2.60;;;14.90;99.90;;;;;;4998382;28;20103;-76
2023/08/29 04:45:13;;;;;;;3.25;2.50;;;15.00;99.90;;;;;;4998184;28;20045;-76
2023/08/29 04:47:39;;;;;;;3.47;2.70;;;14.90;99.90;;;;;;5014861;28;20045;-76
2023/08/29 04:50:12;;;;;;;3.60;2.60;;;15.20;99.90;;;;;;4998314;28;20102;-76
2023/08/29 04:52:38;;;;;;;4.32;3.60;;;;;;;;;;4998591;28;20042;-76
2023/08/29 04:55:07;;;;;;;3.67;2.45;;;;;;;;;;4997918;28;20045;-76
2023/08/29 04:57:36;;;;;;;2.55;2.25;;;14.90;99.90;;;;;;5014678;28;20075;-76
2023/08/29 05:00:04;;;;;;;2.92;2.10;;;;;;;;;;4998094;28;20183;-76
2023/08/29 05:02:30;;;;;;;3.50;2.50;;;15.10;99.90;;;;;;5017263;28;20046;-76
2023/08/29 05:04:57;;;;;;;3.38;2.63;;;;;;;;;;5018481;28;20520;-76
2023/08/29 05:07:23;;;;;;;3.30;2.97;;;;;;;;;;5002513;28;20448;-76
2023/08/29 05:09:51;;;;;;;5.93;2.72;;;;;;;;;;5002456;28;20406;-76
2023/08/29 05:12:17;;;;;;;3.80;2.85;;;;;;;;;;5001658;28;20042;-76
2023/08/29 05:14:43;;;;;;;7.20;2.85;;;;;;;;;;5002261;28;20046;-77
2023/08/29 05:17:10;;;;;;;3.28;2.40;;;;;;;;;;5002042;28;20560;-78
2023/08/29 05:19:36;;;;;;;4.15;2.90;;;15.20;99.90;;;;;;5001658;28;20038;-76
2023/08/29 05:22:02;;;;;;;3.45;2.22;;;;;;;;;;5000830;28;20047;-75
2023/08/29 05:24:28;;;;;;;4.32;3.10;;;;;;;;;;5000833;28;20048;-76
2023/08/29 05:26:54;;;;;;;3.35;2.95;;;;;;;;;;5036174;28;20045;-78
2023/08/29 05:29:21;;;;;;;3.80;2.90;;;;;;;;;;5002340;28;20038;-76
2023/08/29 05:31:47;;;;;;;3.38;2.70;;;;;;;;;;5018506;28;20117;-76
2023/08/29 05:34:13;;;;;;;6.57;3.00;;;;;;;;;;5018769;28;20524;-76
2023/08/29 05:36:39;;;;;;;4.50;3.42;;;;;;;;;;5035879;28;20033;-76
2023/08/29 05:39:06;;;;;;;4.55;3.05;;;;;;;;;;5018109;28;20485;-76
2023/08/29 05:41:32;;;;;;;4.75;2.90;;;;;;;;;;5018037;28;20048;-76
2023/08/29 05:44:25;;;;;;;4.05;2.90;;;15.70;99.90;;;;;;5021077;23;20046;-72
2023/08/29 05:49:58;;;;;;;;;;;;;;;;;;;;;
2023/08/29 05:52:38;;;;;;;3.63;2.50;;;16.10;99.90;;;;;;4997835;28;20383;-72
2023/08/29 05:55:38;;;;;;;8.52;2.92;;;16.00;99.90;;;;;;4981192;28;20053;-72
2023/08/29 05:58:40;;;;;;;4.30;2.92;;;16.50;99.90;;;;;;4998894;28;20038;-72
2023/08/29 06:01:15;;;;;;;5.22;3.72;;;16.50;99.90;;;;;;4981441;28;20038;-72
2023/08/29 06:03:58;;;;;;;3.45;3.00;;;16.60;99.90;;;;;;5013353;28;20086;-72
2023/08/29 06:06:42;;;;;;;4.18;2.67;;;16.50;99.90;;;;;;4997154;28;20057;-72
2023/08/29 06:09:23;;;;;;;5.55;2.88;;;16.50;99.90;;;;;;4997737;28;20042;-72
2023/08/29 06:12:42;;;;;;;3.78;2.83;;;16.50;99.90;;;;;;4997292;28;20077;-72
2023/08/29 06:15:14;;;;;;;4.00;3.28;;;16.70;99.90;;;;;;4996082;28;20543;-72
2023/08/29 06:17:50;;;;;;;3.17;2.72;;;16.80;99.90;;;;;;5014822;28;20041;-73
2023/08/29 06:20:16;;;;;;;4.68;3.17;;;17.10;99.90;;;;;;4980735;28;20095;-72
2023/08/29 06:22:59;;;;;;;4.82;2.97;;;17.00;99.90;;;;;;4980551;28;20127;-72
2023/08/29 06:25:47;;;;;;;7.28;2.83;;;;;;;;;;4996806;28;20045;-72
2023/08/29 06:28:43;;;;;;;;;;;;;;;;;;;;;
2023/08/29 06:31:45;;;;;;;2.80;2.30;;;17.30;99.90;;;;;;5012193;28;20081;-72
2023/08/29 06:34:57;;;;;;;3.95;2.72;;;17.10;99.90;;;;;;4961632;28;20042;-74
2023/08/29 06:40:18;;;;;;;2.20;2.00;;;;;;;;;;4989522;28;20281;-72
2023/08/29 06:43:11;;;;;;;3.35;2.22;;;;;;;;;;4985315;28;20050;-72
2023/08/29 06:46:28;;;;;;;3.92;2.40;;;17.90;99.90;;;;;;4981798;28;20045;-73
2023/08/29 06:49:10;;;;;;;7.53;2.60;;;;;;;;;;4991655;28;20081;-72
2023/08/29 06:55:24;;;;;;;;;;;;;;;;;;;;;
2023/08/29 06:58:37;;;;;;;;;;;;;;;;;;;;;
2023/08/29 07:04:22;;;;;;;4.18;2.85;;;;;;;;;;4910449;29;20050;-72
2023/08/29 07:07:22;;;;;;;5.55;2.80;;;;;;;;;;4899566;29;20476;-72
2023/08/29 07:10:17;;;;;;;6.88;2.47;;;;;;;;;;4903051;29;20134;-72
2023/08/29 07:13:00;;;;;;;5.07;2.60;;;;;;;;;;4936290;28;20133;-73
2023/08/29 07:15:37;;;;;;;4.55;2.10;;;19.20;99.90;;;;;;4980183;28;20037;-71
2023/08/29 07:18:32;;;;;;;2.33;1.80;;;19.60;99.90;;;;;;4985801;28;20049;-71
2023/08/29 07:21:10;;;;;;;3.72;1.88;;;;;;;;;;4995722;28;20494;-74
2023/08/29 07:24:06;;;;;;;2.05;1.67;;;;;;;;;;4979470;28;20057;-72
2023/08/29 07:27:17;;;;;;;4.43;1.88;;;19.80;99.90;;;;;;4986858;28;20072;-72
2023/08/29 07:30:17;;;;;;;;;;;;;;;;;;;;;
2023/08/29 07:36:05;;;;;;;4.10;1.63;;;20.10;99.90;;;;;;4976361;28;20498;-71
2023/08/29 07:42:20;;;;;;;;;;;;;;;;;;;;;
2023/08/29 07:44:56;;;;;;;2.83;1.40;;;;;;;;;;4919308;28;20512;-71
2023/08/29 07:50:54;;;;;;;2.78;1.65;;;;;;;;;;4955577;28;20046;-72
2023/08/29 07:53:47;;;;;;;1.45;1.25;;;20.80;99.90;;;;;;4940957;28;20050;-72
2023/08/29 07:56:29;;;;;;;2.65;1.10;;;20.90;99.90;;;;;;4955451;28;20137;-73
2023/08/29 08:02:37;;;;;;;2.03;1.02;;;21.00;99.90;;;;;;5004275;28;20045;-72
2023/08/29 08:05:28;;;;;;;4.75;0.80;;;20.80;99.90;;;;;;4966295;28;20065;-71
2023/08/29 08:08:28;;;;;;;1.73;0.90;;;20.80;99.90;;;;;;4981005;28;20401;-72
2023/08/29 08:14:52;;;;;;;1.40;1.15;;;21.00;99.90;;;;;;4956238;28;20038;-72
2023/08/29 08:17:32;;;;;;;2.38;1.20;;;;;;;;;;4978764;28;20085;-72
2023/08/29 08:20:24;;;;;;;1.05;0.85;;;21.00;99.90;;;;;;4974538;28;20057;-73
2023/08/29 08:23:09;;;;;;;;;;;;;;;;;;;;;
2023/08/29 08:25:35;;;;;;;1.58;1.30;;;;;;;;;;4994604;28;20506;-74
2023/08/29 08:28:15;;;;;;;1.48;1.20;;;20.80;99.90;;;;;;4966251;28;20077;-72
2023/08/29 08:30:57;;;;;;;1.67;1.02;;;21.00;99.90;;;;;;4979016;28;20132;-74
2023/08/29 08:33:35;;;;;;;2.80;1.42;;;;;;;;;;4978123;28;20054;-73
2023/08/29 08:36:25;;;;;;;3.33;1.70;;;21.00;99.90;;;;;;4978156;28;20049;-72
2023/08/29 08:39:06;;;;;;;2.35;1.90;;;20.90;99.90;;;;;;4995171;28;20049;-72
2023/08/29 08:41:52;;;;;;;4.07;2.30;;;21.00;99.90;;;;;;4978606;28;20049;-72
2023/08/29 08:44:46;;;;;;;;;;;;;;;;;;;;;
2023/08/29 08:47:22;;;;;;;3.60;1.90;;;21.00;99.90;;;;;;5010939;28;20042;-72
2023/08/29 08:49:51;;;;;;;2.65;2.03;;;20.90;99.90;;;;;;5011073;28;20085;-72
2023/08/29 08:52:27;;;;;;;2.53;1.90;;;20.90;99.90;;;;;;4979663;28;20092;-72
2023/08/29 08:54:56;;;;;;;1.90;1.60;;;;;;;;;;4993522;28;20042;-73
2023/08/29 08:57:42;;;;;;;3.58;2.28;;;21.00;99.90;;;;;;4978269;28;20125;-74
2023/08/29 09:00:38;;;;;;;2.95;2.05;;;21.00;99.90;;;;;;4943026;28;20114;-71
2023/08/29 09:03:08;;;;;;;2.67;2.22;;;21.00;99.90;;;;;;4976929;28;20064;-71
2023/08/29 09:05:42;;;;;;;3.03;2.00;;;21.00;99.90;;;;;;4978513;28;20048;-72
2023/08/29 09:08:25;;;;;;;2.78;1.98;;;20.90;99.90;;;;;;4978401;28;20121;-74
2023/08/29 09:11:04;;;;;;;5.03;1.98;;;20.90;99.90;;;;;;4977415;28;20083;-74
2023/08/29 09:13:44;;;;;;;3.70;2.00;;;21.30;99.90;;;;;;4978410;28;20045;-71
2023/08/29 09:16:32;;;;;;;2.35;1.95;;;21.10;99.90;;;;;;4978606;28;20511;-71
2023/08/29 09:19:16;;;;;;;;;;;;;;;;;;;;;
2023/08/29 09:21:57;;;;;;;2.58;2.10;;;21.30;99.90;;;;;;5010880;28;20565;-72
2023/08/29 09:24:39;;;;;;;2.97;2.08;;;21.20;99.90;;;;;;4977858;28;20042;-71
2023/08/29 09:30:28;;;;;;;2.35;2.15;;;21.50;99.90;;;;;;4974797;28;20046;-71
2023/08/29 09:33:42;;;;;;;3.67;2.10;;;21.30;99.90;;;;;;4993094;28;20403;-73
2023/08/29 09:39:29;;;;;;;4.60;2.65;;;21.50;99.90;;;;;;4988392;28;20501;-73
2023/08/29 09:42:16;;;;;;;2.10;1.90;;;21.80;99.90;;;;;;5008906;28;20049;-72
2023/08/29 09:45:02;;;;;;;5.60;2.50;;;21.80;99.90;;;;;;4977104;28;20089;-71
2023/08/29 09:47:29;;;;;;;2.65;2.45;;;21.90;99.90;;;;;;4977773;28;20054;-73
2023/08/29 09:51:24;;;;;;;2.28;2.08;;;21.90;99.90;;;;;;4982691;28;20056;-73
2023/08/29 09:54:29;;;;;;;2.13;1.92;;;21.90;99.90;;;;;;4990447;28;20081;-73
2023/08/29 09:57:31;;;;;;;2.63;2.00;;;21.80;99.90;;;;;;4935465;29;20113;-72
2023/08/29 10:00:59;;;;;;;3.22;2.38;;;21.70;99.90;;;;;;4929088;28;20039;-74
2023/08/29 10:07:23;;;;;;;;;;;;;;;;;;;;;
2023/08/29 10:09:50;;;;;;;2.17;1.95;;;;;;;;;;4919520;29;20051;-73
2023/08/29 10:12:25;;;;;;;3.40;2.03;;;21.70;99.90;;;;;;4923293;28;20521;-72
2023/08/29 10:15:46;;;;;;;2.58;1.92;;;21.70;99.90;;;;;;4981125;28;20128;-72
2023/08/29 10:18:54;;;;;;;;;;;;;;;;;;;;;
2023/08/29 10:22:13;;;;;;;3.00;2.70;;;21.80;99.90;;;;;;5014480;28;20037;-72
2023/08/29 10:25:41;;;;;;;2.60;2.15;;;21.70;99.90;;;;;;4970408;28;20104;-72
2023/08/29 10:28:39;;;;;;;3.58;2.00;;;21.80;99.90;;;;;;4996838;28;20045;-72
2023/08/29 10:31:34;;;;;;;2.38;1.98;;;21.80;99.90;;;;;;4982223;28;20049;-72
2023/08/29 10:34:51;;;;;;;2.75;1.50;;;22.10;99.90;;;;;;4978026;28;20522;-77
2023/08/29 10:38:02;;;;;;;2.10;1.90;;;22.20;99.90;;;;;;4979253;28;20073;-72
2023/08/29 10:44:55;;;;;;;2.30;2.10;;;22.70;99.90;;;;;;4995279;28;20046;-72
2023/08/29 10:47:45;;;;;;;2.75;2.53;;;22.90;99.90;;;;;;4952316;28;20054;-72
2023/08/29 10:50:57;;;;;;;4.90;2.10;;;22.30;99.90;;;;;;4998155;28;20041;-72
2023/08/29 10:53:47;;;;;;;3.45;2.10;;;22.70;99.90;;;;;;4902306;29;20059;-72
2023/08/29 10:56:56;;;;;;;4.05;2.28;;;22.80;99.90;;;;;;4981333;28;20050;-72
2023/08/29 11:03:15;;;;;;;;;;;;;;;;;;;;;
2023/08/29 11:09:31;;;;;;;3.15;2.25;;;;;;;;;;4990580;28;20048;-72
2023/08/29 11:12:46;;;;;;;3.08;2.53;;;22.80;99.90;;;;;;4980399;28;20038;-72
2023/08/29 11:15:38;;;;;;;2.10;1.88;;;22.90;99.90;;;;;;4978363;28;20134;-72
2023/08/29 11:18:32;;;;;;;3.35;2.70;;;22.70;99.90;;;;;;4979167;28;20038;-72
2023/08/29 11:21:33;;;;;;;4.40;2.63;;;23.20;99.90;;;;;;4980163;28;20466;-72
2023/08/29 11:24:18;;;;;;;3.15;2.85;;;22.90;99.90;;;;;;4995281;28;20033;-72
2023/08/29 11:26:53;;;;;;;2.58;1.40;;;22.90;99.90;;;;;;4980192;28;20184;-72
2023/08/29 11:29:24;;;;;;;4.93;1.77;;;22.80;99.90;;;;;;4979972;28;20038;-72
2023/08/29 11:35:50;;;;;;;;;;;;;;;;;;;;;
2023/08/29 11:39:21;;;;;;;;;;;;;;;;;;;;;
2023/08/29 11:42:41;;;;;;;2.65;2.28;;;23.00;99.90;;;;;;4912326;29;20055;-73
2023/08/29 11:45:16;;;;;;;3.40;2.92;;;23.30;99.90;;;;;;5008117;23;20056;-70
2023/08/29 11:47:42;;;;;;;2.63;2.30;;;23.50;99.90;;;;;;5012967;28;20482;-71
2023/08/29 11:50:08;;;;;;;2.72;2.10;;;23.60;99.90;;;;;;4994879;28;20172;-71
2023/08/29 11:52:34;;;;;;;3.22;2.25;;;23.30;99.90;;;;;;5012423;28;20493;-70
2023/08/29 11:55:04;;;;;;;3.65;1.92;;;23.70;99.90;;;;;;5012162;28;20038;-71
2023/08/29 11:57:30;;;;;;;3.42;1.88;;;23.50;99.90;;;;;;4994776;28;20060;-70
2023/08/29 11:59:57;;;;;;;2.35;1.90;;;23.50;99.90;;;;;;4978499;28;20034;-71
2023/08/29 12:02:23;;;;;;;2.70;1.65;;;23.60;99.90;;;;;;4978467;28;20104;-70
2023/08/29 12:04:55;;;;;;;2.00;1.23;;;23.70;99.90;;;;;;4994224;28;20038;-69
2023/08/29 12:07:21;;;;;;;1.73;1.43;;;23.70;99.90;;;;;;4978601;28;20046;-70
2023/08/29 12:09:47;;;;;;;2.45;1.90;;;23.70;99.90;;;;;;4994888;28;20539;-70
2023/08/29 12:12:34;;;;;;;2.03;1.30;;;23.50;99.90;;;;;;4994324;28;20452;-70
2023/08/29 12:15:00;;;;;;;2.00;1.48;;;23.90;99.90;;;;;;4994419;28;20053;-70
2023/08/29 12:17:38;;;;;;;1.08;0.98;;;23.90;99.90;;;;;;4994907;28;20045;-70
2023/08/29 12:20:25;;;;;;;2.60;1.70;;;24.00;99.90;;;;;;4982029;28;20045;-71
2023/08/29 12:22:52;;;;;;;1.45;1.20;;;24.30;99.90;;;;;;4996809;28;20268;-70
2023/08/29 12:25:19;;;;;;;2.20;1.50;;;24.30;99.90;;;;;;4995578;28;20088;-70
2023/08/29 12:27:45;;;;;;;2.90;1.88;;;24.30;99.90;;;;;;4994689;28;20104;-70
2023/08/29 12:30:14;;;;;;;1.30;1.17;;;24.20;99.90;;;;;;4994488;28;20041;-70
2023/08/29 12:32:40;;;;;;;1.83;1.23;;;24.50;99.90;;;;;;4994463;28;20041;-70
2023/08/29 12:35:07;;;;;;;1.95;1.17;;;24.60;99.90;;;;;;5011627;28;20088;-70
2023/08/29 12:37:33;;;;;;;1.38;1.20;;;24.80;99.90;;;;;;5011793;28;20045;-70
2023/08/29 12:39:58;;;;;;;2.50;1.30;;;24.60;99.90;;;;;;4994272;28;20038;-70
2023/08/29 12:42:24;;;;;;;3.45;1.40;;;24.30;99.90;;;;;;4994135;28;20069;-70
2023/08/29 12:44:50;;;;;;;2.45;1.20;;;24.20;99.90;;;;;;4977609;28;20516;-70
2023/08/29 12:47:16;;;;;;;2.08;1.10;;;24.20;99.90;;;;;;4994412;28;20038;-70
2023/08/29 12:49:41;;;;;;;2.15;1.30;;;24.10;99.90;;;;;;4994402;28;20045;-70
2023/08/29 12:52:07;;;;;;;2.42;1.33;;;24.20;99.90;;;;;;4994099;28;20085;-70
2023/08/29 12:54:35;;;;;;;2.92;1.50;;;23.80;99.90;;;;;;4993872;28;20049;-70
2023/08/29 12:57:01;;;;;;;3.05;1.58;;;23.70;99.90;;;;;;4994024;28;20042;-70
2023/08/29 12:59:26;;;;;;;2.88;1.70;;;23.80;99.90;;;;;;4994214;28;20048;-70
2023/08/29 13:01:53;;;;;;;4.35;2.50;;;23.90;99.90;;;;;;4993946;28;20042;-70
2023/08/29 13:04:19;;;;;;;4.25;1.85;;;23.60;99.90;;;;;;4993838;28;20038;-71
2023/08/29 13:06:44;;;;;;;2.90;1.65;;;23.80;99.90;;;;;;4993689;28;20040;-70
2023/08/29 13:09:10;;;;;;;4.47;1.75;;;23.90;99.90;;;;;;4994157;28;20041;-70
2023/08/29 13:11:36;;;;;;;2.33;1.98;;;24.00;99.90;;;;;;4996310;28;20042;-70
2023/08/29 13:14:03;;;;;;;2.25;1.50;;;23.80;99.90;;;;;;4994847;28;20100;-70
2023/08/29 13:16:33;;;;;;;3.17;1.50;;;23.90;99.90;;;;;;4978113;28;20374;-70
2023/08/29 13:18:58;;;;;;;2.80;1.48;;;23.80;99.90;;;;;;4994249;28;20046;-70
2023/08/29 13:21:24;;;;;;;3.10;1.50;;;23.80;99.90;;;;;;4994168;28;20048;-71
2023/08/29 13:23:50;;;;;;;3.20;1.60;;;24.30;99.90;;;;;;4996826;28;20092;-70
2023/08/29 13:26:17;;;;;;;1.75;1.33;;;24.00;99.90;;;;;;4997848;28;20052;-70
2023/08/29 13:28:43;;;;;;;1.67;1.50;;;23.90;99.90;;;;;;4997818;28;20038;-70
2023/08/29 13:31:08;;;;;;;1.40;1.30;;;24.00;99.90;;;;;;4997887;28;20045;-70
2023/08/29 13:33:34;;;;;;;3.42;1.83;;;24.00;99.90;;;;;;4997961;28;20061;-70
2023/08/29 13:36:01;;;;;;;1.40;1.25;;;24.10;99.90;;;;;;4997738;28;20057;-70
2023/08/29 13:38:27;;;;;;;2.42;1.23;;;24.10;99.90;;;;;;4998096;28;20508;-70
2023/08/29 13:40:52;;;;;;;4.00;1.73;;;23.90;99.90;;;;;;4997759;28;20133;-70
2023/08/29 13:43:18;;;;;;;3.55;1.70;;;23.80;99.90;;;;;;4997475;28;20072;-70
2023/08/29 13:45:44;;;;;;;2.55;1.30;;;23.80;99.90;;;;;;4997561;28;20050;-70
2023/08/29 13:48:10;;;;;;;2.63;1.52;;;23.90;99.90;;;;;;5015306;28;20034;-70
2023/08/29 13:50:37;;;;;;;3.97;1.50;;;24.00;99.90;;;;;;4997785;28;20046;-70
2023/08/29 13:53:03;;;;;;;1.80;1.63;;;24.00;99.90;;;;;;4981526;28;20080;-69
2023/08/29 13:55:29;;;;;;;2.47;1.27;;;24.10;99.90;;;;;;5014747;28;20070;-69
2023/08/29 13:57:55;;;;;;;3.28;1.80;;;23.80;99.90;;;;;;4997560;28;20575;-69
2023/08/29 14:00:20;;;;;;;1.20;1.10;;;23.80;99.90;;;;;;5014746;28;20074;-69
2023/08/29 14:02:47;;;;;;;2.38;1.25;;;23.80;99.90;;;;;;4997056;28;20046;-69
2023/08/29 14:05:12;;;;;;;1.25;1.00;;;23.90;99.90;;;;;;4996977;28;20068;-69
2023/08/29 14:07:38;;;;;;;2.80;1.13;;;23.70;99.90;;;;;;4980847;28;20125;-69
2023/08/29 14:10:05;;;;;;;2.67;1.00;;;23.70;99.90;;;;;;4997007;28;20117;-69
2023/08/29 14:12:30;;;;;;;1.45;1.10;;;23.80;99.90;;;;;;4997012;28;20038;-69
2023/08/29 14:14:56;;;;;;;1.73;1.00;;;23.50;99.90;;;;;;4996739;28;20493;-69
2023/08/29 14:17:22;;;;;;;2.60;1.50;;;24.20;99.90;;;;;;4996949;28;20044;-69
2023/08/29 14:19:47;;;;;;;2.72;1.40;;;23.90;99.90;;;;;;4996929;28;20444;-69
2023/08/29 14:22:13;;;;;;;2.35;1.70;;;24.10;99.90;;;;;;4996608;28;20042;-69
2023/08/29 14:24:39;;;;;;;1.75;1.60;;;24.00;99.90;;;;;;5013976;28;20038;-69
2023/08/29 14:27:04;;;;;;;1.50;1.40;;;24.00;99.90;;;;;;4996972;28;20061;-69
2023/08/29 14:29:31;;;;;;;2.08;1.77;;;24.10;99.90;;;;;;4996726;28;20038;-70
2023/08/29 14:31:57;;;;;;;3.92;1.55;;;23.80;99.90;;;;;;4996667;28;20037;-70
2023/08/29 14:34:23;;;;;;;2.33;1.40;;;23.80;99.90;;;;;;4996026;28;20511;-69
2023/08/29 14:36:48;;;;;;;2.33;1.80;;;23.80;99.90;;;;;;4996630;28;20080;-70
2023/08/29 14:39:14;;;;;;;2.38;1.10;;;23.90;99.90;;;;;;4997371;28;20038;-71
2023/08/29 14:41:43;;;;;;;5.38;1.50;;;23.80;99.90;;;;;;5014160;28;20034;-70
2023/08/29 14:44:09;;;;;;;1.95;1.77;;;23.50;99.90;;;;;;4996177;28;20129;-70
2023/08/29 14:46:35;;;;;;;3.63;1.38;;;23.40;99.90;;;;;;4996225;28;20073;-70
2023/08/29 14:49:00;;;;;;;1.73;1.10;;;23.50;99.90;;;;;;4997195;28;20514;-70
2023/08/29 14:51:26;;;;;;;1.60;1.00;;;24.00;99.90;;;;;;4997409;28;20501;-70
2023/08/29 14:53:52;;;;;;;2.28;1.48;;;23.40;99.90;;;;;;4996601;28;20052;-70
2023/08/29 14:56:17;;;;;;;1.92;0.95;;;23.20;99.90;;;;;;4996011;28;20050;-70
2023/08/29 14:58:46;;;;;;;1.60;0.80;;;23.30;99.90;;;;;;4996329;28;20049;-70
2023/08/29 15:01:12;;;;;;;1.13;0.70;;;23.00;99.90;;;;;;4979665;28;20057;-70
2023/08/29 15:03:38;;;;;;;1.83;0.90;;;23.00;99.90;;;;;;4995821;28;20038;-70
2023/08/29 15:06:04;;;;;;;1.52;0.90;;;23.00;99.90;;;;;;4979459;28;20041;-70
2023/08/29 15:08:30;;;;;;;1.52;1.00;;;22.80;99.90;;;;;;5013417;28;20411;-70
2023/08/29 15:10:57;;;;;;;2.25;1.38;;;22.80;99.90;;;;;;4995577;28;20033;-70
2023/08/29 15:13:27;;;;;;;1.48;0.95;;;22.70;99.90;;;;;;4995530;28;20388;-70
2023/08/29 15:15:53;;;;;;;2.63;1.80;;;22.60;99.90;;;;;;4995251;28;20049;-70